Voyageurs Natl Park, Minnesota
Current Conditions -  °F | °C
As of 6:55 PM on Monday 20 Oct 2014 (Local Time) from KINL Reporting Station
Overcast Overcast  
Wind Chill: 45°   Ceiling: 2500
Heat Index: 45°   Visibility: 10mi
Dew Point: 36°   Wind: 3mph
Humidity: 71%   Direction: 350°N
Pressure: 30.09"   Gusts: NA
Location:  48.5°N, 93°W
Report Text: KINL 202355Z AUTO 35003KT 10SM OVC025 07/02 A3009 RMK AO2 SLP199 T00720022 10089 20072 53013
Loading
Personal Weather Stations






























Interactive Weather Map
Tropical Storm Tracking
New forecast layout! Learn more

10-Day Weather Forecast

Advertisements
Track Severe Weather on mobile